sensor_id;sensor_type;location;lat;lon;timestamp;temperature;humidity
20777;DHT22;10548;47.504;8.248;2023-06-22T14:39:17;27.20;88.30
20777;DHT22;10548;47.504;8.248;2023-06-22T14:41:44;27.00;92.20
20777;DHT22;10548;47.504;8.248;2023-06-22T14:44:11;26.70;92.60
20777;DHT22;10548;47.504;8.248;2023-06-22T14:46:38;27.00;90.20
20777;DHT22;10548;47.504;8.248;2023-06-22T14:49:05;27.20;91.00
20777;DHT22;10548;47.504;8.248;2023-06-22T14:51:32;27.40;91.50
20777;DHT22;10548;47.504;8.248;2023-06-22T14:53:59;27.50;92.40
20777;DHT22;10548;47.504;8.248;2023-06-22T14:56:26;27.30;91.40
20777;DHT22;10548;47.504;8.248;2023-06-22T14:58:53;27.10;92.30
20777;DHT22;10548;47.504;8.248;2023-06-22T15:01:21;27.00;91.80
20777;DHT22;10548;47.504;8.248;2023-06-22T15:03:48;27.20;92.70
20777;DHT22;10548;47.504;8.248;2023-06-22T15:06:15;27.50;90.20
20777;DHT22;10548;47.504;8.248;2023-06-22T15:08:43;27.40;90.60
20777;DHT22;10548;47.504;8.248;2023-06-22T15:11:10;27.10;91.70
20777;DHT22;10548;47.504;8.248;2023-06-22T15:13:41;27.10;91.60
20777;DHT22;10548;47.504;8.248;2023-06-22T15:16:08;26.70;93.00
20777;DHT22;10548;47.504;8.248;2023-06-22T15:18:36;26.50;94.90
20777;DHT22;10548;47.504;8.248;2023-06-22T15:21:04;26.40;93.30
20777;DHT22;10548;47.504;8.248;2023-06-22T15:23:32;26.10;95.80
20777;DHT22;10548;47.504;8.248;2023-06-22T15:26:02;25.80;95.10
20777;DHT22;10548;47.504;8.248;2023-06-22T15:28:29;25.70;94.50
20777;DHT22;10548;47.504;8.248;2023-06-22T15:30:56;25.60;96.30
20777;DHT22;10548;47.504;8.248;2023-06-22T15:33:24;25.50;96.80
20777;DHT22;10548;47.504;8.248;2023-06-22T15:35:52;25.40;98.20
20777;DHT22;10548;47.504;8.248;2023-06-22T15:38:19;25.40;99.90
20777;DHT22;10548;47.504;8.248;2023-06-22T15:43:14;25.10;98.00
20777;DHT22;10548;47.504;8.248;2023-06-22T15:45:41;24.70;99.90
20777;DHT22;10548;47.504;8.248;2023-06-22T15:48:08;24.30;99.90
20777;DHT22;10548;47.504;8.248;2023-06-22T15:50:36;24.00;99.90
20777;DHT22;10548;47.504;8.248;2023-06-22T15:55:30;23.60;99.90
20777;DHT22;10548;47.504;8.248;2023-06-22T15:57:58;23.60;99.90
20777;DHT22;10548;47.504;8.248;2023-06-22T16:00:26;23.50;99.90
20777;DHT22;10548;47.504;8.248;2023-06-22T16:02:54;23.30;99.20
20777;DHT22;10548;47.504;8.248;2023-06-22T16:05:22;23.30;99.90
20777;DHT22;10548;47.504;8.248;2023-06-22T16:07:49;23.20;99.90
20777;DHT22;10548;47.504;8.248;2023-06-22T16:10:16;23.30;99.90
20777;DHT22;10548;47.504;8.248;2023-06-22T16:12:44;23.20;99.90
20777;DHT22;10548;47.504;8.248;2023-06-22T16:15:12;23.00;99.90
20777;DHT22;10548;47.504;8.248;2023-06-22T16:17:39;22.90;99.90
20777;DHT22;10548;47.504;8.248;2023-06-22T16:20:07;22.90;99.90
20777;DHT22;10548;47.504;8.248;2023-06-22T16:22:35;22.70;99.90
20777;DHT22;10548;47.504;8.248;2023-06-22T16:25:02;22.50;99.90
20777;DHT22;10548;47.504;8.248;2023-06-22T16:27:29;22.20;99.90
20777;DHT22;10548;47.504;8.248;2023-06-22T16:52:06;22.00;99.90
20777;DHT22;10548;47.504;8.248;2023-06-22T16:54:34;20.90;99.90
20777;DHT22;10548;47.504;8.248;2023-06-22T16:57:08;20.70;99.90
20777;DHT22;10548;47.504;8.248;2023-06-22T17:44:10;20.80;99.90
20777;DHT22;10548;47.504;8.248;2023-06-22T17:54:03;20.10;99.90
20777;DHT22;10548;47.504;8.248;2023-06-22T17:56:32;20.10;99.90
20777;DHT22;10548;47.504;8.248;2023-06-22T17:58:59;19.90;99.90
20777;DHT22;10548;47.504;8.248;2023-06-22T18:01:32;19.80;99.90
20777;DHT22;10548;47.504;8.248;2023-06-22T18:04:08;19.80;99.90
20777;DHT22;10548;47.504;8.248;2023-06-22T18:06:40;19.60;99.90
20777;DHT22;10548;47.504;8.248;2023-06-22T18:09:11;19.50;99.90
20777;DHT22;10548;47.504;8.248;2023-06-22T18:11:46;19.50;99.90
20777;DHT22;10548;47.504;8.248;2023-06-22T18:14:19;19.40;99.90
20777;DHT22;10548;47.504;8.248;2023-06-22T18:16:49;19.50;99.90
20777;DHT22;10548;47.504;8.248;2023-06-22T18:19:18;19.40;99.90
20777;DHT22;10548;47.504;8.248;2023-06-22T18:21:49;19.30;99.90
20777;DHT22;10548;47.504;8.248;2023-06-22T18:24:16;19.20;99.90
20777;DHT22;10548;47.504;8.248;2023-06-22T18:26:44;19.20;99.90
20777;DHT22;10548;47.504;8.248;2023-06-22T18:29:12;19.10;99.90
20777;DHT22;10548;47.504;8.248;2023-06-22T18:31:39;19.10;99.90
20777;DHT22;10548;47.504;8.248;2023-06-22T18:34:09;19.10;99.90
20777;DHT22;10548;47.504;8.248;2023-06-22T18:36:44;19.00;99.90
20777;DHT22;10548;47.504;8.248;2023-06-22T18:39:13;19.00;99.90
20777;DHT22;10548;47.504;8.248;2023-06-22T18:41:43;19.00;99.90
20777;DHT22;10548;47.504;8.248;2023-06-22T18:44:20;19.10;99.90
20777;DHT22;10548;47.504;8.248;2023-06-22T18:46:52;19.00;99.90
20777;DHT22;10548;47.504;8.248;2023-06-22T18:49:24;19.00;99.90
20777;DHT22;10548;47.504;8.248;2023-06-22T18:52:16;18.80;99.90
20777;DHT22;10548;47.504;8.248;2023-06-22T18:54:46;18.80;99.90
20777;DHT22;10548;47.504;8.248;2023-06-22T18:57:22;18.80;99.90
20777;DHT22;10548;47.504;8.248;2023-06-22T18:59:51;18.70;99.90
20777;DHT22;10548;47.504;8.248;2023-06-22T19:05:41;18.60;99.90
20777;DHT22;10548;47.504;8.248;2023-06-22T19:08:08;18.60;99.90
20777;DHT22;10548;47.504;8.248;2023-06-22T19:10:41;18.60;99.90
20777;DHT22;10548;47.504;8.248;2023-06-22T19:13:27;18.70;99.90
20777;DHT22;10548;47.504;8.248;2023-06-22T19:16:05;18.60;99.90
20777;DHT22;10548;47.504;8.248;2023-06-22T19:18:37;18.50;99.90
20777;DHT22;10548;47.504;8.248;2023-06-22T19:21:09;18.50;99.90
20777;DHT22;10548;47.504;8.248;2023-06-22T19:23:38;18.50;99.90
20777;DHT22;10548;47.504;8.248;2023-06-22T19:26:10;18.40;99.90
20777;DHT22;10548;47.504;8.248;2023-06-22T19:28:49;18.40;99.90
20777;DHT22;10548;47.504;8.248;2023-06-22T19:31:18;18.40;99.90
20777;DHT22;10548;47.504;8.248;2023-06-22T19:33:45;18.40;99.90
20777;DHT22;10548;47.504;8.248;2023-06-22T19:36:13;18.30;99.90
20777;DHT22;10548;47.504;8.248;2023-06-22T19:38:45;18.40;99.90
20777;DHT22;10548;47.504;8.248;2023-06-22T19:41:12;18.30;99.90
20777;DHT22;10548;47.504;8.248;2023-06-22T19:43:40;18.30;99.90
20777;DHT22;10548;47.504;8.248;2023-06-22T19:46:07;18.30;99.90
20777;DHT22;10548;47.504;8.248;2023-06-22T19:48:34;18.30;99.90
20777;DHT22;10548;47.504;8.248;2023-06-22T19:51:03;18.20;99.90
20777;DHT22;10548;47.504;8.248;2023-06-22T19:53:31;18.30;99.90
20777;DHT22;10548;47.504;8.248;2023-06-22T19:55:58;18.30;99.90
20777;DHT22;10548;47.504;8.248;2023-06-22T19:58:30;18.40;99.90
20777;DHT22;10548;47.504;8.248;2023-06-22T20:00:59;18.30;99.90
20777;DHT22;10548;47.504;8.248;2023-06-22T20:03:32;18.30;99.90
20777;DHT22;10548;47.504;8.248;2023-06-22T20:06:15;18.30;99.90
20777;DHT22;10548;47.504;8.248;2023-06-22T20:09:06;18.30;99.90
20777;DHT22;10548;47.504;8.248;2023-06-22T20:11:34;18.30;99.90
20777;DHT22;10548;47.504;8.248;2023-06-22T20:14:01;18.20;99.90
20777;DHT22;10548;47.504;8.248;2023-06-22T20:16:29;18.30;99.90
20777;DHT22;10548;47.504;8.248;2023-06-22T20:19:10;18.30;99.90
20777;DHT22;10548;47.504;8.248;2023-06-22T20:21:45;18.40;99.90
20777;DHT22;10548;47.504;8.248;2023-06-22T20:24:13;18.50;99.90
20777;DHT22;10548;47.504;8.248;2023-06-22T20:26:42;18.40;99.90
20777;DHT22;10548;47.504;8.248;2023-06-22T20:29:28;18.40;99.90
20777;DHT22;10548;47.504;8.248;2023-06-22T20:32:23;18.40;99.90
20777;DHT22;10548;47.504;8.248;2023-06-22T20:34:50;18.50;99.90
20777;DHT22;10548;47.504;8.248;2023-06-22T20:37:17;18.50;99.90
20777;DHT22;10548;47.504;8.248;2023-06-22T20:39:46;18.50;99.90
20777;DHT22;10548;47.504;8.248;2023-06-22T20:42:15;18.50;99.90
20777;DHT22;10548;47.504;8.248;2023-06-22T20:44:44;18.50;99.90
20777;DHT22;10548;47.504;8.248;2023-06-22T20:47:18;18.40;99.90
20777;DHT22;10548;47.504;8.248;2023-06-22T20:49:48;18.40;99.90
20777;DHT22;10548;47.504;8.248;2023-06-22T20:52:16;18.30;99.90
20777;DHT22;10548;47.504;8.248;2023-06-22T20:54:44;18.20;99.90
20777;DHT22;10548;47.504;8.248;2023-06-22T20:57:11;18.10;99.90
20777;DHT22;10548;47.504;8.248;2023-06-22T20:59:38;18.00;99.90
20777;DHT22;10548;47.504;8.248;2023-06-22T21:02:06;17.90;99.90
20777;DHT22;10548;47.504;8.248;2023-06-22T21:04:33;17.90;99.90
20777;DHT22;10548;47.504;8.248;2023-06-22T21:07:03;17.80;99.90
20777;DHT22;10548;47.504;8.248;2023-06-22T21:09:31;17.80;99.90
20777;DHT22;10548;47.504;8.248;2023-06-22T21:12:17;17.80;99.90
20777;DHT22;10548;47.504;8.248;2023-06-22T21:14:44;17.80;99.90
20777;DHT22;10548;47.504;8.248;2023-06-22T21:17:12;17.70;99.90
20777;DHT22;10548;47.504;8.248;2023-06-22T21:19:39;17.70;99.90
20777;DHT22;10548;47.504;8.248;2023-06-22T21:22:06;17.70;99.90
20777;DHT22;10548;47.504;8.248;2023-06-22T21:24:34;17.70;99.90
20777;DHT22;10548;47.504;8.248;2023-06-22T21:27:01;17.70;99.90
20777;DHT22;10548;47.504;8.248;2023-06-22T21:29:28;17.60;99.90
20777;DHT22;10548;47.504;8.248;2023-06-22T21:31:55;17.60;99.90
20777;DHT22;10548;47.504;8.248;2023-06-22T21:34:22;17.60;99.90
20777;DHT22;10548;47.504;8.248;2023-06-22T21:36:49;17.60;99.90
20777;DHT22;10548;47.504;8.248;2023-06-22T21:39:17;17.60;99.90
20777;DHT22;10548;47.504;8.248;2023-06-22T21:41:45;17.50;99.90
20777;DHT22;10548;47.504;8.248;2023-06-22T21:44:12;17.60;99.90
20777;DHT22;10548;47.504;8.248;2023-06-22T21:46:39;17.50;99.90
20777;DHT22;10548;47.504;8.248;2023-06-22T21:49:06;17.50;99.90
20777;DHT22;10548;47.504;8.248;2023-06-22T21:51:34;17.50;99.90
20777;DHT22;10548;47.504;8.248;2023-06-22T21:54:01;17.50;99.90
20777;DHT22;10548;47.504;8.248;2023-06-22T21:56:28;17.50;99.90
20777;DHT22;10548;47.504;8.248;2023-06-22T21:58:55;17.50;99.90
20777;DHT22;10548;47.504;8.248;2023-06-22T22:01:22;17.60;99.90
20777;DHT22;10548;47.504;8.248;2023-06-22T22:03:49;17.50;99.90
20777;DHT22;10548;47.504;8.248;2023-06-22T22:06:18;17.50;99.90
20777;DHT22;10548;47.504;8.248;2023-06-22T22:08:47;17.50;99.90
20777;DHT22;10548;47.504;8.248;2023-06-22T22:11:14;17.40;99.90
20777;DHT22;10548;47.504;8.248;2023-06-22T22:13:41;17.40;99.90
20777;DHT22;10548;47.504;8.248;2023-06-22T22:16:10;17.40;99.90
20777;DHT22;10548;47.504;8.248;2023-06-22T22:18:37;17.40;99.90
20777;DHT22;10548;47.504;8.248;2023-06-22T22:21:04;17.40;99.90
20777;DHT22;10548;47.504;8.248;2023-06-22T22:23:31;17.40;99.90
20777;DHT22;10548;47.504;8.248;2023-06-22T22:25:58;17.40;99.90
20777;DHT22;10548;47.504;8.248;2023-06-22T22:28:25;17.40;99.90
20777;DHT22;10548;47.504;8.248;2023-06-22T22:30:53;17.30;99.90
20777;DHT22;10548;47.504;8.248;2023-06-22T22:33:20;17.40;99.90
20777;DHT22;10548;47.504;8.248;2023-06-22T22:35:47;17.40;99.90
20777;DHT22;10548;47.504;8.248;2023-06-22T22:38:14;17.30;99.90
20777;DHT22;10548;47.504;8.248;2023-06-22T22:40:41;17.30;99.90
20777;DHT22;10548;47.504;8.248;2023-06-22T22:43:08;17.30;99.90
20777;DHT22;10548;47.504;8.248;2023-06-22T22:45:36;17.30;99.90
20777;DHT22;10548;47.504;8.248;2023-06-22T22:48:03;17.20;99.90
20777;DHT22;10548;47.504;8.248;2023-06-22T22:50:30;17.30;99.90
20777;DHT22;10548;47.504;8.248;2023-06-22T22:52:57;17.30;99.90
20777;DHT22;10548;47.504;8.248;2023-06-22T22:55:25;17.30;99.90
20777;DHT22;10548;47.504;8.248;2023-06-22T22:57:52;17.30;99.90
20777;DHT22;10548;47.504;8.248;2023-06-22T23:00:20;17.30;99.90
20777;DHT22;10548;47.504;8.248;2023-06-22T23:02:47;17.30;99.90
20777;DHT22;10548;47.504;8.248;2023-06-22T23:05:15;17.30;99.90
20777;DHT22;10548;47.504;8.248;2023-06-22T23:07:42;17.40;99.90
20777;DHT22;10548;47.504;8.248;2023-06-22T23:10:09;17.30;99.90
20777;DHT22;10548;47.504;8.248;2023-06-22T23:12:38;17.40;99.90
20777;DHT22;10548;47.504;8.248;2023-06-22T23:15:07;17.40;99.90
20777;DHT22;10548;47.504;8.248;2023-06-22T23:17:34;17.30;99.90
20777;DHT22;10548;47.504;8.248;2023-06-22T23:20:02;17.30;99.90
20777;DHT22;10548;47.504;8.248;2023-06-22T23:22:37;17.20;99.90
20777;DHT22;10548;47.504;8.248;2023-06-22T23:25:05;17.20;99.90
20777;DHT22;10548;47.504;8.248;2023-06-22T23:27:33;17.20;99.90
20777;DHT22;10548;47.504;8.248;2023-06-22T23:30:00;17.20;99.90
20777;DHT22;10548;47.504;8.248;2023-06-22T23:32:30;17.20;99.90
20777;DHT22;10548;47.504;8.248;2023-06-22T23:34:59;17.20;99.90
20777;DHT22;10548;47.504;8.248;2023-06-22T23:37:27;17.20;99.90
20777;DHT22;10548;47.504;8.248;2023-06-22T23:39:54;17.10;99.90
20777;DHT22;10548;47.504;8.248;2023-06-22T23:42:21;17.10;99.90
20777;DHT22;10548;47.504;8.248;2023-06-22T23:44:48;17.10;99.90
20777;DHT22;10548;47.504;8.248;2023-06-22T23:47:15;17.10;99.90
20777;DHT22;10548;47.504;8.248;2023-06-22T23:49:42;17.00;99.90
20777;DHT22;10548;47.504;8.248;2023-06-22T23:52:09;17.10;99.90
20777;DHT22;10548;47.504;8.248;2023-06-22T23:54:36;17.10;99.90
20777;DHT22;10548;47.504;8.248;2023-06-22T23:57:04;17.10;99.90
20777;DHT22;10548;47.504;8.248;2023-06-22T23:59:32;17.10;99.90
